createdAt,value
2019-03-16T00:02:03.541Z,5.60
2019-03-16T00:04:34.843Z,5.70
2019-03-16T00:07:06.448Z,5.70
2019-03-16T00:09:39.055Z,5.70
2019-03-16T00:12:10.814Z,5.60
2019-03-16T00:14:44.126Z,5.60
2019-03-16T00:17:23.355Z,5.50
2019-03-16T00:19:48.614Z,5.60
2019-03-16T00:22:20.239Z,5.70
2019-03-16T00:24:51.865Z,5.70
2019-03-16T00:27:23.176Z,5.60
2019-03-16T00:29:54.832Z,5.60
2019-03-16T00:32:26.472Z,5.60
2019-03-16T00:34:57.873Z,5.60
2019-03-16T00:37:29.447Z,5.70
2019-03-16T00:40:01.028Z,5.60
2019-03-16T00:42:32.842Z,5.70
2019-03-16T00:45:05.363Z,5.70
2019-03-16T00:47:36.726Z,5.70
2019-03-16T00:50:13.520Z,5.60
2019-03-16T00:52:45.027Z,5.60
2019-03-16T00:55:15.896Z,5.70
2019-03-16T00:57:46.949Z,5.70
2019-03-16T01:00:18.373Z,5.70
2019-03-16T01:02:49.958Z,5.80
2019-03-16T01:05:20.889Z,5.80
2019-03-16T01:07:51.801Z,5.80
2019-03-16T01:10:22.766Z,5.70
2019-03-16T01:12:53.780Z,5.70
2019-03-16T01:15:24.744Z,5.70
2019-03-16T01:17:55.582Z,5.70
2019-03-16T01:20:27.031Z,5.80
2019-03-16T01:22:57.940Z,5.70
2019-03-16T01:25:28.906Z,5.70
2019-03-16T01:27:59.849Z,5.60
2019-03-16T01:30:30.762Z,5.60
2019-03-16T01:33:01.709Z,5.50
2019-03-16T01:35:32.659Z,5.60
2019-03-16T01:38:03.597Z,5.50
2019-03-16T01:40:36.239Z,5.60
2019-03-16T01:43:07.205Z,5.50
2019-03-16T01:45:38.149Z,5.50
2019-03-16T01:48:09.065Z,5.60
2019-03-16T01:50:39.998Z,5.60
2019-03-16T01:53:11.886Z,5.50
2019-03-16T01:55:42.823Z,5.60
2019-03-16T01:58:13.664Z,5.50
2019-03-16T02:00:44.599Z,5.50
2019-03-16T02:03:15.515Z,5.50
2019-03-16T02:05:46.462Z,5.40
2019-03-16T02:08:17.416Z,5.50
2019-03-16T02:10:48.351Z,5.40
2019-03-16T02:13:20.416Z,5.40
2019-03-16T02:15:51.457Z,5.30
2019-03-16T02:18:22.396Z,5.30
2019-03-16T02:20:53.433Z,5.30
2019-03-16T02:23:24.373Z,5.30
2019-03-16T02:25:56.757Z,5.20
2019-03-16T02:28:27.691Z,5.20
2019-03-16T02:30:58.721Z,5.20
2019-03-16T02:33:31.457Z,5.20
2019-03-16T02:36:02.346Z,5.10
2019-03-16T02:38:33.257Z,5.10
2019-03-16T02:41:04.217Z,5.00
2019-03-16T02:43:35.644Z,5.10
2019-03-16T02:46:06.591Z,5.10
2019-03-16T02:48:37.647Z,5.10
2019-03-16T02:51:08.589Z,5.00
2019-03-16T02:53:40.546Z,5.20
2019-03-16T02:56:11.389Z,5.10
2019-03-16T02:58:42.422Z,5.00
2019-03-16T03:01:13.361Z,5.10
2019-03-16T03:03:45.517Z,5.00
2019-03-16T03:06:16.376Z,5.00
2019-03-16T03:08:47.306Z,4.90
2019-03-16T03:11:18.248Z,4.90
2019-03-16T03:13:49.174Z,4.90
2019-03-16T03:16:20.215Z,5.00
2019-03-16T03:18:51.053Z,5.00
2019-03-16T03:21:22.094Z,5.00
2019-03-16T03:23:53.034Z,5.00
2019-03-16T03:26:23.974Z,5.00
2019-03-16T03:28:54.913Z,4.90
2019-03-16T03:31:26.053Z,4.80
2019-03-16T03:34:01.596Z,4.80
2019-03-16T03:36:29.566Z,4.90
2019-03-16T03:39:00.505Z,4.90
2019-03-16T03:41:32.440Z,4.90
2019-03-16T03:44:03.406Z,4.90
2019-03-16T03:46:34.340Z,4.90
2019-03-16T03:49:06.336Z,4.90
2019-03-16T03:51:37.219Z,4.80
2019-03-16T03:54:08.158Z,4.80
2019-03-16T03:56:39.015Z,4.80
2019-03-16T03:59:09.954Z,4.90
2019-03-16T04:01:40.794Z,4.80
2019-03-16T04:04:15.734Z,4.90
2019-03-16T04:06:45.356Z,4.90
2019-03-16T04:09:17.233Z,4.90
2019-03-16T04:11:48.335Z,4.90
2019-03-16T04:14:19.273Z,4.90
2019-03-16T04:16:50.311Z,5.00
2019-03-16T04:19:21.357Z,5.00
2019-03-16T04:21:52.258Z,5.00
2019-03-16T04:24:23.230Z,5.00
2019-03-16T04:26:55.734Z,5.10
2019-03-16T04:29:27.969Z,5.00
2019-03-16T04:31:59.991Z,5.10
2019-03-16T04:34:31.051Z,5.10
2019-03-16T04:37:01.987Z,5.10
2019-03-16T04:39:33.839Z,5.00
2019-03-16T04:42:04.790Z,5.10
2019-03-16T04:44:36.769Z,5.00
2019-03-16T04:47:07.712Z,5.00
2019-03-16T04:49:38.650Z,5.00
2019-03-16T04:52:09.587Z,5.10
2019-03-16T04:54:40.527Z,5.10
2019-03-16T04:57:11.464Z,5.00
2019-03-16T04:59:42.504Z,5.10
2019-03-16T05:02:14.361Z,5.00
2019-03-16T05:04:45.302Z,5.00
2019-03-16T05:07:16.212Z,5.00
2019-03-16T05:09:47.074Z,5.00
2019-03-16T05:12:20.725Z,5.00
2019-03-16T05:14:51.611Z,5.10
2019-03-16T05:17:22.549Z,5.10
2019-03-16T05:19:53.358Z,5.10
2019-03-16T05:22:24.738Z,5.10
2019-03-16T05:24:55.673Z,5.10
2019-03-16T05:27:26.598Z,5.10
2019-03-16T05:29:57.632Z,5.20
2019-03-16T05:32:29.619Z,5.20
2019-03-16T05:35:00.553Z,5.10
2019-03-16T05:37:31.491Z,5.10
2019-03-16T05:40:02.429Z,5.20
2019-03-16T05:42:33.443Z,5.20
2019-03-16T05:45:05.945Z,5.30
2019-03-16T05:47:36.881Z,5.20
2019-03-16T05:50:10.332Z,5.30
2019-03-16T05:52:41.315Z,5.30
2019-03-16T05:55:14.285Z,5.30
2019-03-16T05:57:45.209Z,5.40
2019-03-16T06:00:16.692Z,5.50
2019-03-16T06:02:48.962Z,5.50
2019-03-16T06:05:19.794Z,5.50
2019-03-16T06:07:50.732Z,5.60
2019-03-16T06:10:21.671Z,5.60
2019-03-16T06:12:52.608Z,5.70
2019-03-16T06:15:23.444Z,5.70
2019-03-16T06:17:54.355Z,5.70
2019-03-16T06:20:25.298Z,5.80
2019-03-16T06:22:57.389Z,5.80
2019-03-16T06:25:28.328Z,6.00
2019-03-16T06:27:59.159Z,6.00
2019-03-16T06:30:31.126Z,6.10
2019-03-16T06:33:03.495Z,6.20
2019-03-16T06:35:34.434Z,6.20
2019-03-16T06:38:05.372Z,6.40
2019-03-16T06:40:36.412Z,6.40
2019-03-16T06:43:07.964Z,6.50
2019-03-16T06:45:38.904Z,6.60
2019-03-16T06:48:09.838Z,6.70
2019-03-16T06:50:40.746Z,6.70
2019-03-16T06:53:11.994Z,6.70
2019-03-16T06:55:42.960Z,6.70
2019-03-16T06:58:13.897Z,6.70
2019-03-16T07:00:44.835Z,6.70
2019-03-16T07:03:15.763Z,6.80
2019-03-16T07:05:46.689Z,6.80
2019-03-16T07:08:17.672Z,6.90
2019-03-16T07:10:48.693Z,7.10
2019-03-16T07:13:19.734Z,7.20
2019-03-16T07:15:50.671Z,7.40
2019-03-16T07:18:21.611Z,7.50
2019-03-16T07:20:52.547Z,7.70
2019-03-16T07:23:23.599Z,7.70
2019-03-16T07:25:54.756Z,7.70
2019-03-16T07:28:25.639Z,7.70
2019-03-16T07:30:56.527Z,8.10
2019-03-16T07:33:27.440Z,8.50
2019-03-16T07:35:58.350Z,8.50
2019-03-16T07:38:29.317Z,8.30
2019-03-16T07:41:00.404Z,8.30
2019-03-16T07:43:31.506Z,8.40
2019-03-16T07:46:02.411Z,8.90
2019-03-16T07:48:33.482Z,10.80
2019-03-16T07:51:04.522Z,10.60
2019-03-16T07:53:35.358Z,10.40
2019-03-16T07:56:06.278Z,9.90
2019-03-16T07:58:37.235Z,9.60
2019-03-16T08:01:08.174Z,9.30
2019-03-16T08:03:40.516Z,8.80
2019-03-16T08:06:11.485Z,8.50
2019-03-16T08:08:42.319Z,8.40
2019-03-16T08:11:13.436Z,8.30
2019-03-16T08:13:44.396Z,8.20
2019-03-16T08:16:15.335Z,8.10
2019-03-16T08:18:47.519Z,8.10
2019-03-16T08:21:18.440Z,8.20
2019-03-16T08:23:49.382Z,8.30
2019-03-16T08:26:20.316Z,8.40
2019-03-16T08:28:51.257Z,8.40
2019-03-16T08:31:22.195Z,8.40
2019-03-16T08:33:53.237Z,8.50
2019-03-16T08:36:24.173Z,8.60
2019-03-16T08:38:56.164Z,8.60
2019-03-16T08:41:27.175Z,8.70
2019-03-16T08:43:58.011Z,8.80
2019-03-16T08:46:29.055Z,9.00
2019-03-16T08:48:59.885Z,8.90
2019-03-16T08:51:30.797Z,9.00
2019-03-16T08:54:01.767Z,9.10
2019-03-16T08:56:32.571Z,9.60
2019-03-16T08:59:03.550Z,10.10
2019-03-16T09:01:34.475Z,10.20
2019-03-16T09:04:05.416Z,10.50
2019-03-16T09:06:36.333Z,11.10
2019-03-16T09:09:07.602Z,11.30
2019-03-16T09:11:38.951Z,10.90
2019-03-16T09:14:09.885Z,10.40
2019-03-16T09:16:40.827Z,10.40
2019-03-16T09:19:11.761Z,10.30
2019-03-16T09:21:43.706Z,10.30
2019-03-16T09:24:14.660Z,10.00
2019-03-16T09:26:45.598Z,10.00
2019-03-16T09:29:16.449Z,9.70
2019-03-16T09:31:47.476Z,9.70
2019-03-16T09:34:19.379Z,9.70
2019-03-16T09:36:50.355Z,9.50
2019-03-16T09:39:21.413Z,9.70
2019-03-16T09:41:52.327Z,10.10
2019-03-16T09:44:23.263Z,10.40
2019-03-16T09:46:54.232Z,10.40
2019-03-16T09:49:25.165Z,10.70
2019-03-16T09:51:56.287Z,10.70
2019-03-16T09:54:28.546Z,10.90
2019-03-16T09:57:01.626Z,11.10
2019-03-16T09:59:31.990Z,10.90
2019-03-16T10:02:02.907Z,10.90
2019-03-16T10:04:33.853Z,10.50
2019-03-16T10:07:04.804Z,10.40
2019-03-16T10:09:35.748Z,10.40
2019-03-16T10:12:06.774Z,10.30
2019-03-16T10:14:37.715Z,10.10
2019-03-16T10:17:08.604Z,10.00
2019-03-16T10:19:39.500Z,9.90
2019-03-16T10:22:10.644Z,10.00
2019-03-16T10:24:41.580Z,10.20
2019-03-16T10:27:12.505Z,10.30
2019-03-16T10:29:43.427Z,10.20
2019-03-16T10:32:14.903Z,10.30
2019-03-16T10:34:45.841Z,9.90
2019-03-16T10:37:16.780Z,9.70
2019-03-16T10:39:47.698Z,9.70
2019-03-16T10:42:19.140Z,9.70
2019-03-16T10:44:50.111Z,9.70
2019-03-16T10:47:21.045Z,9.60
2019-03-16T10:49:51.985Z,9.60
2019-03-16T10:52:24.234Z,9.50
2019-03-16T10:54:55.296Z,9.40
2019-03-16T10:57:26.214Z,9.40
2019-03-16T10:59:57.099Z,9.10
2019-03-16T11:02:28.111Z,8.90
2019-03-16T11:04:59.019Z,8.70
2019-03-16T11:07:29.987Z,8.30
2019-03-16T11:10:00.921Z,8.30
2019-03-16T11:12:31.755Z,8.10
2019-03-16T11:15:02.566Z,8.30
2019-03-16T11:17:33.505Z,8.40
2019-03-16T11:20:07.233Z,8.50
2019-03-16T11:22:39.132Z,8.30
2019-03-16T11:25:10.873Z,8.30
2019-03-16T11:27:42.159Z,8.70
2019-03-16T11:30:15.333Z,8.60
2019-03-16T11:32:46.669Z,8.40
2019-03-16T11:35:17.729Z,7.90
2019-03-16T11:37:49.107Z,7.90
2019-03-16T11:40:21.862Z,8.00
2019-03-16T11:42:53.378Z,8.00
2019-03-16T11:45:24.626Z,8.00
2019-03-16T11:47:55.937Z,8.10
2019-03-16T11:50:28.237Z,8.00
2019-03-16T11:52:59.469Z,8.10
2019-03-16T11:55:31.840Z,8.10
2019-03-16T11:58:03.722Z,8.10
2019-03-16T12:00:36.018Z,8.00
2019-03-16T12:03:07.340Z,8.00
2019-03-16T12:05:38.986Z,7.70
2019-03-16T12:08:10.027Z,7.70
2019-03-16T12:10:42.404Z,7.60
2019-03-16T12:13:17.968Z,7.60
2019-03-16T12:15:47.079Z,7.70
2019-03-16T12:18:18.613Z,7.50
2019-03-16T12:20:50.812Z,7.50
2019-03-16T12:23:22.348Z,7.40
2019-03-16T12:25:53.847Z,7.20
2019-03-16T12:28:26.398Z,7.10
2019-03-16T12:30:58.049Z,7.20
2019-03-16T12:33:30.381Z,7.20
2019-03-16T12:36:02.702Z,7.10
2019-03-16T12:38:35.666Z,6.90
2019-03-16T12:41:06.852Z,6.60
2019-03-16T12:43:38.350Z,6.80
2019-03-16T12:46:09.566Z,6.70
2019-03-16T12:48:41.164Z,6.70
2019-03-16T12:51:13.737Z,6.80
2019-03-16T12:53:45.646Z,6.80
2019-03-16T12:56:18.709Z,6.70
2019-03-16T12:58:50.711Z,6.90
2019-03-16T13:01:22.400Z,6.60
2019-03-16T13:03:54.033Z,6.50
2019-03-16T13:06:27.383Z,6.50
2019-03-16T13:08:59.902Z,6.50
2019-03-16T13:11:34.596Z,6.60
2019-03-16T13:14:06.964Z,6.20
2019-03-16T13:16:38.931Z,6.50
2019-03-16T13:19:12.459Z,6.60
2019-03-16T13:21:44.753Z,6.50
2019-03-16T13:24:21.066Z,6.10
2019-03-16T13:26:54.921Z,6.00
2019-03-16T13:29:28.840Z,5.80
2019-03-16T13:32:03.410Z,5.80
2019-03-16T13:34:36.141Z,5.70
2019-03-16T13:37:17.342Z,5.60
2019-03-16T13:39:56.862Z,5.70
2019-03-16T13:42:30.556Z,5.70
2019-03-16T13:45:02.563Z,5.60
2019-03-16T13:47:38.099Z,5.60
2019-03-16T13:50:15.371Z,5.50
2019-03-16T13:52:52.413Z,5.50
2019-03-16T13:55:31.354Z,5.40
2019-03-16T13:58:08.631Z,5.40
2019-03-16T14:00:45.032Z,5.40
2019-03-16T14:03:28.946Z,5.30
2019-03-16T14:06:05.732Z,5.40
2019-03-16T14:08:47.157Z,5.30
2019-03-16T14:11:20.739Z,5.30
2019-03-16T14:13:54.101Z,5.40
2019-03-16T14:16:25.620Z,5.40
2019-03-16T14:18:56.948Z,5.40
2019-03-16T14:21:30.961Z,5.30
2019-03-16T14:24:06.723Z,5.40
2019-03-16T14:26:37.983Z,5.40
2019-03-16T14:29:14.253Z,5.40
2019-03-16T14:31:45.998Z,5.40
2019-03-16T14:34:20.813Z,5.40
2019-03-16T14:37:17.346Z,5.50
2019-03-16T14:39:58.068Z,5.30
2019-03-16T14:42:37.099Z,5.50
2019-03-16T14:45:16.147Z,5.40
2019-03-16T14:50:49.811Z,5.40
2019-03-16T14:53:33.326Z,5.50
2019-03-16T14:56:09.586Z,5.50
2019-03-16T14:58:46.597Z,5.50
2019-03-16T15:01:18.812Z,5.50
2019-03-16T15:03:54.077Z,5.40
2019-03-16T15:06:38.350Z,5.40
2019-03-16T15:09:18.677Z,5.50
2019-03-16T15:11:53.994Z,5.50
2019-03-16T15:14:28.186Z,5.50
2019-03-16T15:17:14.332Z,5.60
2019-03-16T15:19:48.412Z,5.70
2019-03-16T15:22:22.301Z,5.50
2019-03-16T15:24:55.180Z,5.50
2019-03-16T15:27:29.039Z,5.50
2019-03-16T15:30:02.949Z,5.50
2019-03-16T15:32:37.679Z,5.50
2019-03-16T15:35:17.919Z,5.60
2019-03-16T15:37:52.536Z,5.60
2019-03-16T15:40:25.791Z,5.70
2019-03-16T15:42:58.307Z,5.60
2019-03-16T15:45:31.641Z,5.70
2019-03-16T15:48:06.359Z,5.60
2019-03-16T15:50:40.603Z,5.60
2019-03-16T15:53:24.603Z,5.70
2019-03-16T15:55:53.317Z,5.80
2019-03-16T15:58:33.511Z,5.80
2019-03-16T16:03:58.335Z,5.90
2019-03-16T16:06:31.483Z,5.80
2019-03-16T16:09:04.133Z,5.80
2019-03-16T16:11:36.224Z,5.80
2019-03-16T16:14:09.918Z,5.80
2019-03-16T16:16:43.412Z,5.90
2019-03-16T16:19:21.586Z,5.90
2019-03-16T16:21:52.072Z,5.90
2019-03-16T16:24:26.831Z,5.90
2019-03-16T16:27:03.214Z,6.00
2019-03-16T16:32:32.718Z,6.00
2019-03-16T16:35:08.847Z,6.00
2019-03-16T16:37:45.120Z,6.00
2019-03-16T16:40:21.887Z,6.00
2019-03-16T16:42:56.803Z,6.10
2019-03-16T16:45:32.116Z,6.10
2019-03-16T16:48:05.422Z,6.10
2019-03-16T16:50:42.848Z,6.20
2019-03-16T16:53:19.432Z,6.20
2019-03-16T16:55:55.415Z,6.20
2019-03-16T16:58:28.702Z,6.20
2019-03-16T17:01:04.924Z,6.20
2019-03-16T17:03:42.377Z,6.20
2019-03-16T17:06:14.276Z,6.20
2019-03-16T17:08:51.716Z,6.20
2019-03-16T17:11:26.281Z,6.20
2019-03-16T17:14:02.408Z,6.30
2019-03-16T17:16:33.449Z,6.30
2019-03-16T17:19:05.851Z,6.30
2019-03-16T17:21:37.089Z,6.30
2019-03-16T17:24:09.456Z,6.30
2019-03-16T17:26:40.676Z,6.30
2019-03-16T17:29:13.638Z,6.40
2019-03-16T17:31:46.245Z,6.40
2019-03-16T17:34:17.370Z,6.40
2019-03-16T17:36:48.329Z,6.40
2019-03-16T17:39:19.179Z,6.40
2019-03-16T17:41:51.027Z,6.40
2019-03-16T17:44:22.040Z,6.40
2019-03-16T17:46:53.186Z,6.40
2019-03-16T17:49:24.148Z,6.50
2019-03-16T17:51:58.046Z,6.50
2019-03-16T17:54:30.219Z,6.50
2019-03-16T17:57:01.261Z,6.60
2019-03-16T17:59:32.203Z,6.60
2019-03-16T18:02:04.256Z,6.60
2019-03-16T18:04:35.276Z,6.60
2019-03-16T18:07:06.215Z,6.60
2019-03-16T18:09:37.175Z,6.60
2019-03-16T18:12:08.320Z,6.70
2019-03-16T18:14:40.734Z,6.70
2019-03-16T18:17:11.735Z,6.70
2019-03-16T18:19:43.734Z,6.70
2019-03-16T18:22:14.840Z,6.80
2019-03-16T18:24:45.880Z,6.80
2019-03-16T18:27:16.920Z,6.80
2019-03-16T18:29:49.041Z,6.80
2019-03-16T18:32:21.106Z,6.90
2019-03-16T18:34:52.090Z,7.00
2019-03-16T18:37:23.107Z,7.10
2019-03-16T18:39:54.420Z,7.40
2019-03-16T18:42:27.810Z,7.50
2019-03-16T18:44:58.729Z,7.60
2019-03-16T18:47:32.441Z,7.90
2019-03-16T18:50:04.040Z,8.00
2019-03-16T18:52:35.413Z,8.00
2019-03-16T18:55:11.647Z,8.20
2019-03-16T18:57:42.733Z,8.20
2019-03-16T19:00:18.416Z,8.30
2019-03-16T19:02:49.510Z,8.20
2019-03-16T19:05:20.550Z,8.20
2019-03-16T19:07:52.821Z,8.10
2019-03-16T19:10:24.067Z,8.10
2019-03-16T19:12:56.728Z,8.10
2019-03-16T19:15:27.888Z,8.10
2019-03-16T19:18:01.589Z,8.10
2019-03-16T19:20:33.407Z,8.20
2019-03-16T19:23:05.543Z,8.20
2019-03-16T19:25:36.730Z,8.20
2019-03-16T19:28:08.924Z,8.40
2019-03-16T19:30:40.320Z,8.30
2019-03-16T19:33:12.543Z,8.30
2019-03-16T19:35:44.280Z,8.30
2019-03-16T19:38:17.529Z,8.30
2019-03-16T19:40:49.471Z,8.30
2019-03-16T19:43:22.157Z,8.20
2019-03-16T19:45:54.626Z,8.30
2019-03-16T19:48:27.962Z,8.30
2019-03-16T19:51:00.338Z,8.40
2019-03-16T19:53:32.379Z,8.40
2019-03-16T19:56:08.661Z,8.40
2019-03-16T19:58:39.025Z,8.40
2019-03-16T20:01:11.159Z,8.40
2019-03-16T20:03:43.662Z,8.30
2019-03-16T20:06:25.176Z,8.40
2019-03-16T20:08:50.431Z,8.40
2019-03-16T20:11:21.950Z,8.30
2019-03-16T20:13:54.314Z,8.40
2019-03-16T20:16:25.936Z,8.30
2019-03-16T20:18:58.513Z,8.30
2019-03-16T20:21:31.035Z,8.20
2019-03-16T20:24:03.272Z,8.30
2019-03-16T20:26:34.944Z,8.30
2019-03-16T20:29:08.052Z,8.30
2019-03-16T20:31:46.858Z,8.20
2019-03-16T20:34:15.645Z,8.20
2019-03-16T20:36:49.261Z,8.20
2019-03-16T20:39:21.788Z,8.20
2019-03-16T20:41:54.176Z,8.20
2019-03-16T20:44:26.486Z,8.20
2019-03-16T20:46:58.611Z,8.20
2019-03-16T20:49:32.017Z,8.30
2019-03-16T20:52:05.090Z,8.30
2019-03-16T20:54:37.500Z,8.30
2019-03-16T20:57:10.026Z,8.30
2019-03-16T20:59:43.765Z,8.30
2019-03-16T21:02:16.113Z,8.30
2019-03-16T21:04:48.601Z,8.30
2019-03-16T21:07:20.717Z,8.30
2019-03-16T21:09:54.320Z,8.30
2019-03-16T21:12:26.044Z,8.30
2019-03-16T21:14:58.311Z,8.20
2019-03-16T21:17:30.768Z,8.20
2019-03-16T21:20:05.608Z,8.10
2019-03-16T21:22:39.059Z,8.10
2019-03-16T21:25:15.294Z,8.10
2019-03-16T21:27:48.172Z,8.10
2019-03-16T21:30:22.841Z,8.10
2019-03-16T21:32:55.188Z,8.10
2019-03-16T21:35:27.329Z,8.10
2019-03-16T21:37:59.505Z,8.10
2019-03-16T21:40:32.683Z,8.10
2019-03-16T21:43:04.626Z,8.10
2019-03-16T21:45:36.838Z,8.10
2019-03-16T21:48:08.109Z,8.10
2019-03-16T21:50:40.754Z,8.10
2019-03-16T21:53:12.344Z,8.10
2019-03-16T21:55:46.006Z,8.10
2019-03-16T21:58:16.862Z,8.10
2019-03-16T22:00:47.903Z,8.10
2019-03-16T22:03:18.961Z,8.10
2019-03-16T22:05:50.007Z,8.10
2019-03-16T22:08:21.014Z,8.10
2019-03-16T22:10:52.391Z,8.10
2019-03-16T22:13:23.433Z,8.10
2019-03-16T22:15:54.576Z,8.10
2019-03-16T22:18:26.960Z,8.00
2019-03-16T22:20:57.885Z,8.00
2019-03-16T22:23:28.930Z,8.10
2019-03-16T22:25:59.839Z,8.10
2019-03-16T22:28:30.773Z,8.10
2019-03-16T22:31:01.818Z,8.10
2019-03-16T22:33:34.944Z,8.20
2019-03-16T22:36:06.657Z,8.20
2019-03-16T22:38:38.155Z,8.20
2019-03-16T22:41:09.740Z,8.10
2019-03-16T22:43:42.283Z,8.10
2019-03-16T22:46:13.498Z,8.20
2019-03-16T22:48:46.487Z,8.10
2019-03-16T22:51:17.736Z,8.10
2019-03-16T22:53:50.320Z,8.10
2019-03-16T22:56:22.208Z,8.20
2019-03-16T22:58:53.453Z,8.10
2019-03-16T23:01:26.019Z,8.20
2019-03-16T23:04:06.372Z,8.10
2019-03-16T23:06:31.184Z,8.20
2019-03-16T23:09:02.911Z,8.20
2019-03-16T23:11:35.286Z,8.10
2019-03-16T23:14:06.634Z,8.10
2019-03-16T23:16:41.912Z,8.10
2019-03-16T23:19:12.607Z,8.20
2019-03-16T23:21:43.650Z,8.20
2019-03-16T23:24:16.124Z,8.20
2019-03-16T23:26:47.637Z,8.40
2019-03-16T23:29:20.359Z,8.20
2019-03-16T23:31:53.342Z,8.30
2019-03-16T23:34:24.896Z,8.20
2019-03-16T23:36:56.987Z,8.50
2019-03-16T23:39:30.640Z,8.30
2019-03-16T23:42:01.595Z,8.40
2019-03-16T23:44:33.953Z,8.30
2019-03-16T23:47:06.147Z,8.40
2019-03-16T23:49:37.175Z,8.30
2019-03-16T23:52:08.427Z,8.30
2019-03-16T23:54:39.361Z,8.40
2019-03-16T23:57:10.841Z,8.30
2019-03-16T23:59:41.746Z,8.30
